sensor_id;sensor_type;location;lat;lon;timestamp;temperature;humidity
60039;DHT22;45916;52.734;6.544;2022-10-14T00:01:48;11.50;99.90
60039;DHT22;45916;52.734;6.544;2022-10-14T00:04:13;11.30;99.90
60039;DHT22;45916;52.734;6.544;2022-10-14T00:06:39;11.20;99.90
60039;DHT22;45916;52.734;6.544;2022-10-14T00:09:07;11.10;99.90
60039;DHT22;45916;52.734;6.544;2022-10-14T00:11:35;11.00;99.90
60039;DHT22;45916;52.734;6.544;2022-10-14T00:14:07;10.90;99.90
60039;DHT22;45916;52.734;6.544;2022-10-14T00:16:35;10.70;99.90
60039;DHT22;45916;52.734;6.544;2022-10-14T00:19:02;10.60;99.90
60039;DHT22;45916;52.734;6.544;2022-10-14T00:21:28;10.50;99.90
60039;DHT22;45916;52.734;6.544;2022-10-14T00:23:55;10.40;99.90
60039;DHT22;45916;52.734;6.544;2022-10-14T00:26:24;10.30;99.90
60039;DHT22;45916;52.734;6.544;2022-10-14T00:28:51;10.20;99.90
60039;DHT22;45916;52.734;6.544;2022-10-14T00:31:17;10.20;99.90
60039;DHT22;45916;52.734;6.544;2022-10-14T00:33:43;10.20;99.90
60039;DHT22;45916;52.734;6.544;2022-10-14T00:36:11;10.40;99.90
60039;DHT22;45916;52.734;6.544;2022-10-14T00:38:37;10.70;99.90
60039;DHT22;45916;52.734;6.544;2022-10-14T00:41:04;10.80;99.90
60039;DHT22;45916;52.734;6.544;2022-10-14T00:43:57;11.00;99.90
60039;DHT22;45916;52.734;6.544;2022-10-14T00:46:25;11.20;99.90
60039;DHT22;45916;52.734;6.544;2022-10-14T00:48:51;11.40;99.90
60039;DHT22;45916;52.734;6.544;2022-10-14T00:51:18;11.40;99.90
60039;DHT22;45916;52.734;6.544;2022-10-14T00:53:44;11.40;99.90
60039;DHT22;45916;52.734;6.544;2022-10-14T00:56:13;11.50;99.90
60039;DHT22;45916;52.734;6.544;2022-10-14T00:58:40;11.50;99.90
60039;DHT22;45916;52.734;6.544;2022-10-14T01:01:07;11.60;99.90
60039;DHT22;45916;52.734;6.544;2022-10-14T01:03:33;11.60;99.90
60039;DHT22;45916;52.734;6.544;2022-10-14T01:06:04;11.70;99.90
60039;DHT22;45916;52.734;6.544;2022-10-14T01:11:14;11.70;99.90
60039;DHT22;45916;52.734;6.544;2022-10-14T01:14:10;11.70;99.90
60039;DHT22;45916;52.734;6.544;2022-10-14T01:21:55;11.70;99.90
60039;DHT22;45916;52.734;6.544;2022-10-14T01:25:01;11.70;99.90
60039;DHT22;45916;52.734;6.544;2022-10-14T01:30:21;11.70;99.90
60039;DHT22;45916;52.734;6.544;2022-10-14T01:33:09;11.80;99.90
60039;DHT22;45916;52.734;6.544;2022-10-14T01:38:45;11.70;99.90
60039;DHT22;45916;52.734;6.544;2022-10-14T01:41:17;11.80;99.90
60039;DHT22;45916;52.734;6.544;2022-10-14T01:43:46;11.80;99.90
60039;DHT22;45916;52.734;6.544;2022-10-14T01:46:13;11.70;99.90
60039;DHT22;45916;52.734;6.544;2022-10-14T01:48:46;11.70;99.90
60039;DHT22;45916;52.734;6.544;2022-10-14T01:51:17;11.70;99.90
60039;DHT22;45916;52.734;6.544;2022-10-14T01:53:52;11.80;99.90
60039;DHT22;45916;52.734;6.544;2022-10-14T01:56:19;11.80;99.90
60039;DHT22;45916;52.734;6.544;2022-10-14T01:58:45;11.80;99.90
60039;DHT22;45916;52.734;6.544;2022-10-14T02:01:12;11.80;99.90
60039;DHT22;45916;52.734;6.544;2022-10-14T02:03:39;11.80;99.90
60039;DHT22;45916;52.734;6.544;2022-10-14T02:06:09;11.80;99.90
60039;DHT22;45916;52.734;6.544;2022-10-14T02:11:21;11.70;99.90
60039;DHT22;45916;52.734;6.544;2022-10-14T02:14:10;11.70;99.90
60039;DHT22;45916;52.734;6.544;2022-10-14T02:16:47;11.70;99.90
60039;DHT22;45916;52.734;6.544;2022-10-14T02:21:50;11.70;99.90
60039;DHT22;45916;52.734;6.544;2022-10-14T02:24:25;11.70;99.90
60039;DHT22;45916;52.734;6.544;2022-10-14T02:26:54;11.70;99.90
60039;DHT22;45916;52.734;6.544;2022-10-14T02:29:23;11.70;99.90
60039;DHT22;45916;52.734;6.544;2022-10-14T02:31:50;11.80;99.90
60039;DHT22;45916;52.734;6.544;2022-10-14T02:34:20;11.80;99.90
60039;DHT22;45916;52.734;6.544;2022-10-14T02:36:47;11.70;99.90
60039;DHT22;45916;52.734;6.544;2022-10-14T02:39:23;11.70;99.90
60039;DHT22;45916;52.734;6.544;2022-10-14T02:41:50;11.80;99.90
60039;DHT22;45916;52.734;6.544;2022-10-14T02:44:15;11.80;99.90
60039;DHT22;45916;52.734;6.544;2022-10-14T02:46:41;11.80;99.90
60039;DHT22;45916;52.734;6.544;2022-10-14T02:49:07;11.70;99.90
60039;DHT22;45916;52.734;6.544;2022-10-14T02:51:33;11.70;99.90
60039;DHT22;45916;52.734;6.544;2022-10-14T02:53:59;11.70;99.90
60039;DHT22;45916;52.734;6.544;2022-10-14T02:56:26;11.60;99.90
60039;DHT22;45916;52.734;6.544;2022-10-14T02:58:51;11.60;99.90
60039;DHT22;45916;52.734;6.544;2022-10-14T03:01:17;11.60;99.90
60039;DHT22;45916;52.734;6.544;2022-10-14T03:03:43;11.50;99.90
60039;DHT22;45916;52.734;6.544;2022-10-14T03:06:09;11.50;99.90
60039;DHT22;45916;52.734;6.544;2022-10-14T03:08:34;11.40;99.90
60039;DHT22;45916;52.734;6.544;2022-10-14T03:11:00;11.40;99.90
60039;DHT22;45916;52.734;6.544;2022-10-14T03:13:26;11.50;99.90
60039;DHT22;45916;52.734;6.544;2022-10-14T03:15:51;11.50;99.90
60039;DHT22;45916;52.734;6.544;2022-10-14T03:18:17;11.50;99.90
60039;DHT22;45916;52.734;6.544;2022-10-14T03:20:44;11.50;99.90
60039;DHT22;45916;52.734;6.544;2022-10-14T03:23:11;11.50;99.90
60039;DHT22;45916;52.734;6.544;2022-10-14T03:25:36;11.50;99.90
60039;DHT22;45916;52.734;6.544;2022-10-14T03:28:02;11.50;99.90
60039;DHT22;45916;52.734;6.544;2022-10-14T03:30:28;11.50;99.90
60039;DHT22;45916;52.734;6.544;2022-10-14T03:32:54;11.50;99.90
60039;DHT22;45916;52.734;6.544;2022-10-14T03:35:20;11.50;99.90
60039;DHT22;45916;52.734;6.544;2022-10-14T03:37:46;11.50;99.90
60039;DHT22;45916;52.734;6.544;2022-10-14T03:40:11;11.60;99.90
60039;DHT22;45916;52.734;6.544;2022-10-14T03:42:37;11.60;99.90
60039;DHT22;45916;52.734;6.544;2022-10-14T03:45:03;11.60;99.90
60039;DHT22;45916;52.734;6.544;2022-10-14T03:47:29;11.60;99.90
60039;DHT22;45916;52.734;6.544;2022-10-14T03:49:55;11.60;99.90
60039;DHT22;45916;52.734;6.544;2022-10-14T03:52:20;11.60;99.90
60039;DHT22;45916;52.734;6.544;2022-10-14T03:54:46;11.60;99.90
60039;DHT22;45916;52.734;6.544;2022-10-14T03:57:12;11.70;99.90
60039;DHT22;45916;52.734;6.544;2022-10-14T03:59:37;11.60;99.90
60039;DHT22;45916;52.734;6.544;2022-10-14T04:02:03;11.60;99.90
60039;DHT22;45916;52.734;6.544;2022-10-14T04:04:28;11.50;99.90
60039;DHT22;45916;52.734;6.544;2022-10-14T04:06:54;11.50;99.90
60039;DHT22;45916;52.734;6.544;2022-10-14T04:09:20;11.50;99.90
60039;DHT22;45916;52.734;6.544;2022-10-14T04:11:46;11.40;99.90
60039;DHT22;45916;52.734;6.544;2022-10-14T04:14:11;11.40;99.90
60039;DHT22;45916;52.734;6.544;2022-10-14T04:16:37;11.40;99.90
60039;DHT22;45916;52.734;6.544;2022-10-14T04:19:03;11.30;99.90
60039;DHT22;45916;52.734;6.544;2022-10-14T04:21:28;11.30;99.90
60039;DHT22;45916;52.734;6.544;2022-10-14T04:23:54;11.20;99.90
60039;DHT22;45916;52.734;6.544;2022-10-14T04:26:20;11.20;99.90
60039;DHT22;45916;52.734;6.544;2022-10-14T04:28:45;11.20;99.90
60039;DHT22;45916;52.734;6.544;2022-10-14T04:31:11;11.20;99.90
60039;DHT22;45916;52.734;6.544;2022-10-14T04:33:37;11.10;99.90
60039;DHT22;45916;52.734;6.544;2022-10-14T04:36:05;11.10;99.90
60039;DHT22;45916;52.734;6.544;2022-10-14T04:38:31;11.10;99.90
60039;DHT22;45916;52.734;6.544;2022-10-14T04:40:57;11.10;99.90
60039;DHT22;45916;52.734;6.544;2022-10-14T04:43:23;11.10;99.90
60039;DHT22;45916;52.734;6.544;2022-10-14T04:45:49;11.10;99.90
60039;DHT22;45916;52.734;6.544;2022-10-14T04:48:15;11.10;99.90
60039;DHT22;45916;52.734;6.544;2022-10-14T04:50:42;11.00;99.90
60039;DHT22;45916;52.734;6.544;2022-10-14T04:53:08;11.00;99.90
60039;DHT22;45916;52.734;6.544;2022-10-14T04:55:34;11.00;99.90
60039;DHT22;45916;52.734;6.544;2022-10-14T04:57:59;11.00;99.90
60039;DHT22;45916;52.734;6.544;2022-10-14T05:00:25;11.00;99.90
60039;DHT22;45916;52.734;6.544;2022-10-14T05:02:50;11.00;99.90
60039;DHT22;45916;52.734;6.544;2022-10-14T05:05:16;11.00;99.90
60039;DHT22;45916;52.734;6.544;2022-10-14T05:07:42;11.00;99.90
60039;DHT22;45916;52.734;6.544;2022-10-14T05:10:08;11.00;99.90
60039;DHT22;45916;52.734;6.544;2022-10-14T05:12:37;11.00;99.90
60039;DHT22;45916;52.734;6.544;2022-10-14T05:15:04;11.00;99.90
60039;DHT22;45916;52.734;6.544;2022-10-14T05:17:31;11.00;99.90
60039;DHT22;45916;52.734;6.544;2022-10-14T05:19:57;11.00;99.90
60039;DHT22;45916;52.734;6.544;2022-10-14T05:22:23;11.10;99.90
60039;DHT22;45916;52.734;6.544;2022-10-14T05:24:49;11.10;99.90
60039;DHT22;45916;52.734;6.544;2022-10-14T05:27:15;11.10;99.90
60039;DHT22;45916;52.734;6.544;2022-10-14T05:29:41;11.00;99.90
60039;DHT22;45916;52.734;6.544;2022-10-14T05:32:06;11.00;99.90
60039;DHT22;45916;52.734;6.544;2022-10-14T05:34:32;11.10;99.90
60039;DHT22;45916;52.734;6.544;2022-10-14T05:36:58;11.10;99.90
60039;DHT22;45916;52.734;6.544;2022-10-14T05:39:24;11.00;99.90
60039;DHT22;45916;52.734;6.544;2022-10-14T05:41:49;11.10;99.90
60039;DHT22;45916;52.734;6.544;2022-10-14T05:44:15;11.20;99.90
60039;DHT22;45916;52.734;6.544;2022-10-14T05:46:40;11.10;99.90
60039;DHT22;45916;52.734;6.544;2022-10-14T05:49:06;11.20;99.90
60039;DHT22;45916;52.734;6.544;2022-10-14T05:51:32;11.20;99.90
60039;DHT22;45916;52.734;6.544;2022-10-14T05:53:58;11.20;99.90
60039;DHT22;45916;52.734;6.544;2022-10-14T05:56:24;11.20;99.90
60039;DHT22;45916;52.734;6.544;2022-10-14T05:58:50;11.20;99.90
60039;DHT22;45916;52.734;6.544;2022-10-14T06:01:16;11.20;99.90
60039;DHT22;45916;52.734;6.544;2022-10-14T06:03:42;11.20;99.90
60039;DHT22;45916;52.734;6.544;2022-10-14T06:06:12;11.20;99.90
60039;DHT22;45916;52.734;6.544;2022-10-14T06:08:39;11.20;99.90
60039;DHT22;45916;52.734;6.544;2022-10-14T06:11:05;11.20;99.90
60039;DHT22;45916;52.734;6.544;2022-10-14T06:13:31;11.30;99.90
60039;DHT22;45916;52.734;6.544;2022-10-14T06:16:02;11.30;99.90
60039;DHT22;45916;52.734;6.544;2022-10-14T06:18:28;11.30;99.90
60039;DHT22;45916;52.734;6.544;2022-10-14T06:20:55;11.30;99.90
60039;DHT22;45916;52.734;6.544;2022-10-14T06:23:21;11.20;99.90
60039;DHT22;45916;52.734;6.544;2022-10-14T06:25:47;11.30;99.90
60039;DHT22;45916;52.734;6.544;2022-10-14T06:28:12;11.30;99.90
60039;DHT22;45916;52.734;6.544;2022-10-14T06:30:38;11.30;99.90
60039;DHT22;45916;52.734;6.544;2022-10-14T06:33:04;11.40;99.90
60039;DHT22;45916;52.734;6.544;2022-10-14T06:35:29;11.40;99.90
60039;DHT22;45916;52.734;6.544;2022-10-14T06:37:55;11.50;99.90
60039;DHT22;45916;52.734;6.544;2022-10-14T06:40:21;11.50;99.90
60039;DHT22;45916;52.734;6.544;2022-10-14T06:42:46;11.50;99.90
60039;DHT22;45916;52.734;6.544;2022-10-14T06:45:12;11.60;99.90
60039;DHT22;45916;52.734;6.544;2022-10-14T06:47:38;11.70;99.90
60039;DHT22;45916;52.734;6.544;2022-10-14T06:50:04;11.80;99.90
60039;DHT22;45916;52.734;6.544;2022-10-14T06:52:30;11.80;99.90
60039;DHT22;45916;52.734;6.544;2022-10-14T06:54:55;11.90;99.90
60039;DHT22;45916;52.734;6.544;2022-10-14T06:57:21;11.90;99.90
60039;DHT22;45916;52.734;6.544;2022-10-14T06:59:46;12.00;99.90
60039;DHT22;45916;52.734;6.544;2022-10-14T07:02:12;11.90;99.90
60039;DHT22;45916;52.734;6.544;2022-10-14T07:04:38;11.90;99.90
60039;DHT22;45916;52.734;6.544;2022-10-14T07:07:05;11.90;99.90
60039;DHT22;45916;52.734;6.544;2022-10-14T07:09:31;12.00;99.90
60039;DHT22;45916;52.734;6.544;2022-10-14T07:11:57;12.00;99.90
60039;DHT22;45916;52.734;6.544;2022-10-14T07:14:23;12.10;99.90
60039;DHT22;45916;52.734;6.544;2022-10-14T07:16:48;12.10;99.90
60039;DHT22;45916;52.734;6.544;2022-10-14T07:19:14;12.00;99.90
60039;DHT22;45916;52.734;6.544;2022-10-14T07:21:40;12.10;99.90
60039;DHT22;45916;52.734;6.544;2022-10-14T07:24:07;12.00;99.90
60039;DHT22;45916;52.734;6.544;2022-10-14T07:26:33;12.00;99.90
60039;DHT22;45916;52.734;6.544;2022-10-14T07:28:59;12.00;99.90
60039;DHT22;45916;52.734;6.544;2022-10-14T07:31:25;12.00;99.90
60039;DHT22;45916;52.734;6.544;2022-10-14T07:33:51;12.10;99.90
60039;DHT22;45916;52.734;6.544;2022-10-14T07:36:18;12.00;99.90
60039;DHT22;45916;52.734;6.544;2022-10-14T07:38:43;12.10;99.90
60039;DHT22;45916;52.734;6.544;2022-10-14T07:41:19;12.20;99.90
60039;DHT22;45916;52.734;6.544;2022-10-14T07:43:54;12.20;99.90
60039;DHT22;45916;52.734;6.544;2022-10-14T07:46:26;12.30;99.90
60039;DHT22;45916;52.734;6.544;2022-10-14T07:49:03;12.30;99.90
60039;DHT22;45916;52.734;6.544;2022-10-14T07:51:28;12.40;99.90
60039;DHT22;45916;52.734;6.544;2022-10-14T07:53:56;12.40;99.90
60039;DHT22;45916;52.734;6.544;2022-10-14T07:56:22;12.30;99.90
60039;DHT22;45916;52.734;6.544;2022-10-14T07:58:48;12.40;99.90
60039;DHT22;45916;52.734;6.544;2022-10-14T08:01:15;12.40;99.90
60039;DHT22;45916;52.734;6.544;2022-10-14T08:03:42;12.40;99.90
60039;DHT22;45916;52.734;6.544;2022-10-14T08:06:08;12.50;99.90
60039;DHT22;45916;52.734;6.544;2022-10-14T08:08:34;12.50;99.90
60039;DHT22;45916;52.734;6.544;2022-10-14T08:11:12;12.50;99.90
60039;DHT22;45916;52.734;6.544;2022-10-14T08:13:39;12.50;99.90
60039;DHT22;45916;52.734;6.544;2022-10-14T08:16:21;12.50;99.90
60039;DHT22;45916;52.734;6.544;2022-10-14T08:18:48;12.50;99.90
60039;DHT22;45916;52.734;6.544;2022-10-14T08:21:14;12.50;99.90
60039;DHT22;45916;52.734;6.544;2022-10-14T08:23:40;12.50;99.90
60039;DHT22;45916;52.734;6.544;2022-10-14T08:26:30;12.60;99.90
60039;DHT22;45916;52.734;6.544;2022-10-14T08:28:58;12.60;99.90
60039;DHT22;45916;52.734;6.544;2022-10-14T08:31:24;12.60;99.90
60039;DHT22;45916;52.734;6.544;2022-10-14T08:33:50;12.50;99.90
60039;DHT22;45916;52.734;6.544;2022-10-14T08:36:16;12.60;99.90
60039;DHT22;45916;52.734;6.544;2022-10-14T08:38:42;12.60;99.90
60039;DHT22;45916;52.734;6.544;2022-10-14T08:43:51;12.70;99.90
60039;DHT22;45916;52.734;6.544;2022-10-14T08:46:38;12.70;99.90
60039;DHT22;45916;52.734;6.544;2022-10-14T08:51:49;12.80;99.90
60039;DHT22;45916;52.734;6.544;2022-10-14T08:54:40;12.80;99.90
60039;DHT22;45916;52.734;6.544;2022-10-14T08:57:20;12.80;99.90
60039;DHT22;45916;52.734;6.544;2022-10-14T08:59:46;12.90;99.90
60039;DHT22;45916;52.734;6.544;2022-10-14T09:02:29;12.90;99.90
60039;DHT22;45916;52.734;6.544;2022-10-14T09:04:58;13.00;99.90
60039;DHT22;45916;52.734;6.544;2022-10-14T09:07:24;13.00;99.90
60039;DHT22;45916;52.734;6.544;2022-10-14T09:09:53;13.00;99.90
60039;DHT22;45916;52.734;6.544;2022-10-14T09:12:29;13.00;99.90
60039;DHT22;45916;52.734;6.544;2022-10-14T09:15:20;13.00;99.90
60039;DHT22;45916;52.734;6.544;2022-10-14T09:18:09;13.00;99.90
60039;DHT22;45916;52.734;6.544;2022-10-14T09:20:37;13.00;99.90
60039;DHT22;45916;52.734;6.544;2022-10-14T09:23:19;13.00;99.90
60039;DHT22;45916;52.734;6.544;2022-10-14T09:28:15;13.00;99.90
60039;DHT22;45916;52.734;6.544;2022-10-14T09:30:43;13.00;99.90
60039;DHT22;45916;52.734;6.544;2022-10-14T09:33:16;13.00;99.90
60039;DHT22;45916;52.734;6.544;2022-10-14T09:35:45;12.90;99.90
60039;DHT22;45916;52.734;6.544;2022-10-14T09:38:12;12.90;99.90
60039;DHT22;45916;52.734;6.544;2022-10-14T09:40:47;12.90;99.90
60039;DHT22;45916;52.734;6.544;2022-10-14T09:43:21;12.90;99.90
60039;DHT22;45916;52.734;6.544;2022-10-14T09:45:57;12.90;99.90
60039;DHT22;45916;52.734;6.544;2022-10-14T09:51:25;13.00;99.90
60039;DHT22;45916;52.734;6.544;2022-10-14T09:54:03;13.00;99.90
60039;DHT22;45916;52.734;6.544;2022-10-14T09:58:56;13.00;99.90
60039;DHT22;45916;52.734;6.544;2022-10-14T10:01:28;13.00;99.90
60039;DHT22;45916;52.734;6.544;2022-10-14T10:03:55;13.00;99.90
60039;DHT22;45916;52.734;6.544;2022-10-14T10:06:23;13.00;99.90
60039;DHT22;45916;52.734;6.544;2022-10-14T10:11:29;12.90;99.90
60039;DHT22;45916;52.734;6.544;2022-10-14T10:14:24;12.90;99.90
60039;DHT22;45916;52.734;6.544;2022-10-14T10:17:10;12.90;99.90
60039;DHT22;45916;52.734;6.544;2022-10-14T10:19:39;12.90;99.90
60039;DHT22;45916;52.734;6.544;2022-10-14T10:24:50;12.90;99.90
60039;DHT22;45916;52.734;6.544;2022-10-14T10:27:22;12.90;99.90
60039;DHT22;45916;52.734;6.544;2022-10-14T10:29:48;12.90;99.90
60039;DHT22;45916;52.734;6.544;2022-10-14T10:32:20;13.00;99.90
60039;DHT22;45916;52.734;6.544;2022-10-14T10:35:03;13.00;99.90
60039;DHT22;45916;52.734;6.544;2022-10-14T10:40:33;13.10;99.90
60039;DHT22;45916;52.734;6.544;2022-10-14T10:46:13;13.10;99.90
60039;DHT22;45916;52.734;6.544;2022-10-14T10:48:44;13.10;99.90
60039;DHT22;45916;52.734;6.544;2022-10-14T10:51:20;13.10;99.90
60039;DHT22;45916;52.734;6.544;2022-10-14T10:54:07;13.20;99.90
60039;DHT22;45916;52.734;6.544;2022-10-14T10:56:47;13.20;99.90
60039;DHT22;45916;52.734;6.544;2022-10-14T11:07:59;13.30;99.90
60039;DHT22;45916;52.734;6.544;2022-10-14T11:11:12;13.40;99.90
60039;DHT22;45916;52.734;6.544;2022-10-14T11:17:23;13.80;99.90
60039;DHT22;45916;52.734;6.544;2022-10-14T11:42:20;14.30;99.90
60039;DHT22;45916;52.734;6.544;2022-10-14T11:45:18;14.30;99.90
60039;DHT22;45916;52.734;6.544;2022-10-14T11:47:43;14.30;99.90
60039;DHT22;45916;52.734;6.544;2022-10-14T11:50:30;14.30;99.90
60039;DHT22;45916;52.734;6.544;2022-10-14T11:55:46;14.40;99.90
60039;DHT22;45916;52.734;6.544;2022-10-14T11:58:18;14.40;99.90
60039;DHT22;45916;52.734;6.544;2022-10-14T12:00:46;14.50;99.90
60039;DHT22;45916;52.734;6.544;2022-10-14T12:06:06;14.60;99.90
60039;DHT22;45916;52.734;6.544;2022-10-14T12:08:54;14.70;99.90
60039;DHT22;45916;52.734;6.544;2022-10-14T12:11:33;14.80;99.90
60039;DHT22;45916;52.734;6.544;2022-10-14T12:14:19;14.80;99.90
60039;DHT22;45916;52.734;6.544;2022-10-14T12:16:48;15.00;99.90
60039;DHT22;45916;52.734;6.544;2022-10-14T12:19:21;15.00;99.90
60039;DHT22;45916;52.734;6.544;2022-10-14T12:24:39;15.10;99.90
60039;DHT22;45916;52.734;6.544;2022-10-14T12:27:09;15.20;99.90
60039;DHT22;45916;52.734;6.544;2022-10-14T12:29:44;15.10;99.90
60039;DHT22;45916;52.734;6.544;2022-10-14T12:34:55;15.10;99.90
60039;DHT22;45916;52.734;6.544;2022-10-14T12:42:54;15.10;99.90
60039;DHT22;45916;52.734;6.544;2022-10-14T12:45:29;15.20;99.90
60039;DHT22;45916;52.734;6.544;2022-10-14T12:48:21;15.20;99.90
60039;DHT22;45916;52.734;6.544;2022-10-14T12:50:52;15.30;99.90
60039;DHT22;45916;52.734;6.544;2022-10-14T12:53:27;15.30;99.90
60039;DHT22;45916;52.734;6.544;2022-10-14T12:55:56;15.30;99.90
60039;DHT22;45916;52.734;6.544;2022-10-14T13:01:04;15.50;99.90
60039;DHT22;45916;52.734;6.544;2022-10-14T13:03:33;15.60;99.90
60039;DHT22;45916;52.734;6.544;2022-10-14T13:06:30;15.60;99.90
60039;DHT22;45916;52.734;6.544;2022-10-14T13:14:32;15.40;99.90
60039;DHT22;45916;52.734;6.544;2022-10-14T13:17:24;15.40;99.90
60039;DHT22;45916;52.734;6.544;2022-10-14T13:19:48;15.40;99.90
60039;DHT22;45916;52.734;6.544;2022-10-14T13:24:59;15.70;99.90
60039;DHT22;45916;52.734;6.544;2022-10-14T13:27:35;15.70;99.90
60039;DHT22;45916;52.734;6.544;2022-10-14T13:30:19;15.70;99.90
60039;DHT22;45916;52.734;6.544;2022-10-14T13:33:12;15.60;99.90
60039;DHT22;45916;52.734;6.544;2022-10-14T13:36:09;15.50;99.90
60039;DHT22;45916;52.734;6.544;2022-10-14T13:38:37;15.40;99.90
60039;DHT22;45916;52.734;6.544;2022-10-14T13:41:15;15.20;99.90
60039;DHT22;45916;52.734;6.544;2022-10-14T13:43:42;15.20;99.90
60039;DHT22;45916;52.734;6.544;2022-10-14T13:46:15;15.10;99.90
60039;DHT22;45916;52.734;6.544;2022-10-14T13:48:50;15.10;99.90
60039;DHT22;45916;52.734;6.544;2022-10-14T13:51:37;15.10;99.90
60039;DHT22;45916;52.734;6.544;2022-10-14T13:54:28;15.10;99.90
60039;DHT22;45916;52.734;6.544;2022-10-14T13:57:11;15.10;99.90
60039;DHT22;45916;52.734;6.544;2022-10-14T13:59:47;15.10;99.90
60039;DHT22;45916;52.734;6.544;2022-10-14T14:02:15;15.10;99.90
60039;DHT22;45916;52.734;6.544;2022-10-14T14:04:47;15.10;99.90
60039;DHT22;45916;52.734;6.544;2022-10-14T14:07:18;15.10;99.90
60039;DHT22;45916;52.734;6.544;2022-10-14T14:09:57;15.10;99.90
60039;DHT22;45916;52.734;6.544;2022-10-14T14:12:25;15.00;99.90
60039;DHT22;45916;52.734;6.544;2022-10-14T14:14:50;15.10;99.90
60039;DHT22;45916;52.734;6.544;2022-10-14T14:17:23;15.10;99.90
60039;DHT22;45916;52.734;6.544;2022-10-14T14:19:50;15.10;99.90
60039;DHT22;45916;52.734;6.544;2022-10-14T14:24:46;15.10;99.90
60039;DHT22;45916;52.734;6.544;2022-10-14T14:27:32;15.10;99.90
60039;DHT22;45916;52.734;6.544;2022-10-14T14:29:58;15.10;99.90
60039;DHT22;45916;52.734;6.544;2022-10-14T14:32:35;15.10;99.90
60039;DHT22;45916;52.734;6.544;2022-10-14T14:35:02;15.20;99.90
60039;DHT22;45916;52.734;6.544;2022-10-14T14:37:32;15.20;99.90
60039;DHT22;45916;52.734;6.544;2022-10-14T14:40:12;15.10;99.90
60039;DHT22;45916;52.734;6.544;2022-10-14T14:42:40;15.10;99.90
60039;DHT22;45916;52.734;6.544;2022-10-14T14:45:13;15.10;99.90
60039;DHT22;45916;52.734;6.544;2022-10-14T14:47:41;15.10;99.90
60039;DHT22;45916;52.734;6.544;2022-10-14T14:50:12;15.00;99.90
60039;DHT22;45916;52.734;6.544;2022-10-14T14:52:38;15.00;99.90
60039;DHT22;45916;52.734;6.544;2022-10-14T14:55:05;15.00;99.90
60039;DHT22;45916;52.734;6.544;2022-10-14T14:57:31;15.00;99.90
60039;DHT22;45916;52.734;6.544;2022-10-14T15:00:03;15.00;99.90
60039;DHT22;45916;52.734;6.544;2022-10-14T15:02:31;15.00;99.90
60039;DHT22;45916;52.734;6.544;2022-10-14T15:05:03;15.00;99.90
60039;DHT22;45916;52.734;6.544;2022-10-14T15:07:29;15.00;99.90
60039;DHT22;45916;52.734;6.544;2022-10-14T15:10:01;15.00;99.90
60039;DHT22;45916;52.734;6.544;2022-10-14T15:12:30;15.00;99.90
60039;DHT22;45916;52.734;6.544;2022-10-14T15:15:04;14.90;99.90
60039;DHT22;45916;52.734;6.544;2022-10-14T15:25:11;14.90;99.90
60039;DHT22;45916;52.734;6.544;2022-10-14T15:27:54;14.80;99.90
60039;DHT22;45916;52.734;6.544;2022-10-14T15:32:48;14.70;99.90
60039;DHT22;45916;52.734;6.544;2022-10-14T15:35:15;14.70;99.90
60039;DHT22;45916;52.734;6.544;2022-10-14T15:37:41;14.70;99.90
60039;DHT22;45916;52.734;6.544;2022-10-14T15:42:39;14.60;99.90
60039;DHT22;45916;52.734;6.544;2022-10-14T15:45:08;14.60;99.90
60039;DHT22;45916;52.734;6.544;2022-10-14T15:47:34;14.60;99.90
60039;DHT22;45916;52.734;6.544;2022-10-14T15:50:05;14.60;99.90
60039;DHT22;45916;52.734;6.544;2022-10-14T15:52:31;14.60;99.90
60039;DHT22;45916;52.734;6.544;2022-10-14T15:54:57;14.60;99.90
60039;DHT22;45916;52.734;6.544;2022-10-14T15:57:23;14.60;99.90
60039;DHT22;45916;52.734;6.544;2022-10-14T15:59:49;14.50;99.90
60039;DHT22;45916;52.734;6.544;2022-10-14T16:02:19;14.60;99.90
60039;DHT22;45916;52.734;6.544;2022-10-14T16:04:46;14.50;99.90
60039;DHT22;45916;52.734;6.544;2022-10-14T16:07:15;14.50;99.90
60039;DHT22;45916;52.734;6.544;2022-10-14T16:09:41;14.50;99.90
60039;DHT22;45916;52.734;6.544;2022-10-14T16:12:13;14.50;99.90
60039;DHT22;45916;52.734;6.544;2022-10-14T16:14:39;14.50;99.90
60039;DHT22;45916;52.734;6.544;2022-10-14T16:17:05;14.40;99.90
60039;DHT22;45916;52.734;6.544;2022-10-14T16:19:31;14.40;99.90
60039;DHT22;45916;52.734;6.544;2022-10-14T16:21:56;14.40;99.90
60039;DHT22;45916;52.734;6.544;2022-10-14T16:24:22;14.40;99.90
60039;DHT22;45916;52.734;6.544;2022-10-14T16:26:52;14.40;99.90
60039;DHT22;45916;52.734;6.544;2022-10-14T16:29:19;14.40;99.90
60039;DHT22;45916;52.734;6.544;2022-10-14T16:31:49;14.50;99.90
60039;DHT22;45916;52.734;6.544;2022-10-14T16:34:16;14.40;99.90
60039;DHT22;45916;52.734;6.544;2022-10-14T16:36:42;14.40;99.90
60039;DHT22;45916;52.734;6.544;2022-10-14T16:39:11;14.40;99.90
60039;DHT22;45916;52.734;6.544;2022-10-14T16:41:37;14.40;99.90
60039;DHT22;45916;52.734;6.544;2022-10-14T16:44:04;14.40;99.90
60039;DHT22;45916;52.734;6.544;2022-10-14T16:46:30;14.40;99.90
60039;DHT22;45916;52.734;6.544;2022-10-14T16:49:15;14.40;99.90
60039;DHT22;45916;52.734;6.544;2022-10-14T16:51:42;14.40;99.90
60039;DHT22;45916;52.734;6.544;2022-10-14T16:54:08;14.40;99.90
60039;DHT22;45916;52.734;6.544;2022-10-14T16:56:33;14.40;99.90
60039;DHT22;45916;52.734;6.544;2022-10-14T16:59:18;14.30;99.90
60039;DHT22;45916;52.734;6.544;2022-10-14T17:01:44;14.30;99.90
60039;DHT22;45916;52.734;6.544;2022-10-14T17:04:11;14.30;99.90
60039;DHT22;45916;52.734;6.544;2022-10-14T17:06:37;14.30;99.90
60039;DHT22;45916;52.734;6.544;2022-10-14T17:09:03;14.30;99.90
60039;DHT22;45916;52.734;6.544;2022-10-14T17:11:29;14.30;99.90
60039;DHT22;45916;52.734;6.544;2022-10-14T17:13:57;14.30;99.90
60039;DHT22;45916;52.734;6.544;2022-10-14T17:16:23;14.30;99.90
60039;DHT22;45916;52.734;6.544;2022-10-14T17:18:49;14.20;99.90
60039;DHT22;45916;52.734;6.544;2022-10-14T17:21:15;14.20;99.90
60039;DHT22;45916;52.734;6.544;2022-10-14T17:23:42;14.20;99.90
60039;DHT22;45916;52.734;6.544;2022-10-14T17:26:13;14.10;99.90
60039;DHT22;45916;52.734;6.544;2022-10-14T17:28:40;14.10;99.90
60039;DHT22;45916;52.734;6.544;2022-10-14T17:31:08;14.10;99.90
60039;DHT22;45916;52.734;6.544;2022-10-14T17:33:35;14.10;99.90
60039;DHT22;45916;52.734;6.544;2022-10-14T17:36:01;14.00;99.90
60039;DHT22;45916;52.734;6.544;2022-10-14T17:38:29;14.00;99.90
60039;DHT22;45916;52.734;6.544;2022-10-14T17:41:05;14.00;99.90
60039;DHT22;45916;52.734;6.544;2022-10-14T17:43:32;14.00;99.90
60039;DHT22;45916;52.734;6.544;2022-10-14T17:46:02;13.90;99.90
60039;DHT22;45916;52.734;6.544;2022-10-14T17:48:29;13.90;99.90